Time;durP1;ratioP1;P1;durP2;ratioP2;P2;SDS_P1;SDS_P2;PMS_P1;PMS_P2;Temp;Humidity;BMP_temperature;BMP_pressure;BME280_temperature;BME280_humidity;BME280_pressure;Samples;Min_cycle;Max_cycle;Signal;HPM_P1;HPM_P2
2024/01/16 00:00:46;;;;;;;6.87;3.93;;;-3.10;59.70;;;;;;4990442;28;20199;-58
2024/01/16 00:03:12;;;;;;;8.33;3.17;;;-3.20;59.60;;;;;;4989144;28;20740;-59
2024/01/16 00:05:37;;;;;;;6.10;3.43;;;-3.20;59.50;;;;;;4987379;28;20546;-60
2024/01/16 00:08:03;;;;;;;7.97;3.50;;;-3.20;59.50;;;;;;4988532;28;20289;-59
2024/01/16 00:10:29;;;;;;;5.80;3.60;;;-3.20;59.50;;;;;;4978065;28;20183;-59
2024/01/16 00:12:55;;;;;;;4.40;3.37;;;-3.20;59.60;;;;;;4985500;28;20410;-60
2024/01/16 00:15:20;;;;;;;5.87;3.93;;;-3.20;59.70;;;;;;4986298;28;20205;-60
2024/01/16 00:17:46;;;;;;;6.70;3.87;;;-3.20;60.00;;;;;;4985527;28;20202;-60
2024/01/16 00:20:11;;;;;;;5.03;3.57;;;-3.20;60.30;;;;;;4981580;28;20178;-60
2024/01/16 00:22:37;;;;;;;4.13;3.53;;;-3.30;60.10;;;;;;4989381;28;20299;-60
2024/01/16 00:25:03;;;;;;;4.73;3.57;;;-3.40;59.90;;;;;;4988703;28;20329;-59
2024/01/16 00:27:29;;;;;;;6.90;3.60;;;-3.40;59.80;;;;;;4981335;28;20175;-60
2024/01/16 00:29:54;;;;;;;7.43;4.23;;;-3.50;60.10;;;;;;4988833;28;20417;-61
2024/01/16 00:32:20;;;;;;;9.50;4.10;;;-3.50;60.60;;;;;;4988203;28;20178;-60
2024/01/16 00:34:45;;;;;;;7.87;4.47;;;-3.60;60.90;;;;;;4988571;28;20697;-59
2024/01/16 00:37:11;;;;;;;7.10;4.50;;;-3.70;61.20;;;;;;4984153;28;20186;-60
2024/01/16 00:39:37;;;;;;;10.20;5.27;;;-3.70;61.50;;;;;;4989576;28;20170;-60
2024/01/16 00:42:03;;;;;;;12.60;5.33;;;-3.80;61.60;;;;;;4988140;28;20183;-60
2024/01/16 00:44:29;;;;;;;10.07;5.23;;;-3.80;61.80;;;;;;4984472;28;20415;-62
2024/01/16 00:46:54;;;;;;;12.20;5.80;;;-3.90;62.00;;;;;;4980742;28;20215;-59
2024/01/16 00:49:20;;;;;;;8.73;5.50;;;-4.00;62.10;;;;;;4985054;28;20201;-60
2024/01/16 00:51:45;;;;;;;13.90;6.03;;;-4.00;62.40;;;;;;4984092;28;20166;-57
2024/01/16 00:54:11;;;;;;;7.90;5.20;;;-4.10;62.80;;;;;;4986207;28;20241;-59
2024/01/16 00:56:37;;;;;;;30.57;5.97;;;-4.20;63.20;;;;;;4987370;28;20174;-60
2024/01/16 00:59:03;;;;;;;13.33;5.10;;;-4.30;63.60;;;;;;4986268;28;20511;-59
2024/01/16 01:01:28;;;;;;;9.30;5.03;;;-4.30;63.90;;;;;;4983158;28;20170;-59
2024/01/16 01:03:54;;;;;;;6.47;4.20;;;-4.40;64.30;;;;;;4985980;28;20222;-59
2024/01/16 01:06:21;;;;;;;7.37;3.87;;;-4.40;64.90;;;;;;4988097;28;20635;-59
2024/01/16 01:08:46;;;;;;;8.17;4.20;;;-4.40;65.10;;;;;;4987955;28;20465;-57
2024/01/16 01:11:12;;;;;;;6.40;3.53;;;-4.50;65.00;;;;;;4980058;28;20475;-57
2024/01/16 01:13:38;;;;;;;6.27;3.53;;;-4.50;65.20;;;;;;4988991;28;20180;-60
2024/01/16 01:16:04;;;;;;;5.60;3.47;;;-4.50;65.40;;;;;;4988560;28;20899;-59
2024/01/16 01:18:29;;;;;;;8.10;5.00;;;-4.50;65.40;;;;;;4982599;28;20311;-61
2024/01/16 01:20:56;;;;;;;7.83;3.90;;;-4.60;65.50;;;;;;4982998;28;20206;-59
2024/01/16 01:23:21;;;;;;;9.00;4.33;;;-4.70;66.10;;;;;;4987999;28;20181;-60
2024/01/16 01:25:47;;;;;;;6.43;3.80;;;-4.70;66.50;;;;;;4979323;28;20424;-60
2024/01/16 01:28:13;;;;;;;7.63;4.60;;;-4.80;66.50;;;;;;4977264;28;20204;-59
2024/01/16 01:30:38;;;;;;;9.10;4.00;;;-4.80;67.10;;;;;;4988811;28;20170;-59
2024/01/16 01:33:04;;;;;;;8.73;4.57;;;-4.80;68.10;;;;;;4988150;28;20174;-59
2024/01/16 01:35:30;;;;;;;7.87;4.37;;;-4.80;68.30;;;;;;4981666;28;20446;-60
2024/01/16 01:37:56;;;;;;;11.13;5.07;;;-4.80;67.70;;;;;;4982668;28;20460;-59
2024/01/16 01:40:22;;;;;;;8.93;4.60;;;-4.90;67.90;;;;;;4986355;28;20170;-58
2024/01/16 01:42:47;;;;;;;5.90;3.67;;;-4.90;68.60;;;;;;4987548;28;20551;-59
2024/01/16 01:45:13;;;;;;;7.07;3.80;;;-4.90;68.90;;;;;;4987816;28;20245;-58
2024/01/16 01:47:42;;;;;;;6.33;3.90;;;-5.00;69.00;;;;;;4980243;28;20270;-60
2024/01/16 01:50:08;;;;;;;4.00;3.37;;;-5.00;69.40;;;;;;4987758;28;20210;-60
2024/01/16 01:52:35;;;;;;;9.90;3.80;;;-5.00;69.50;;;;;;4988123;28;20422;-59
2024/01/16 01:55:03;;;;;;;6.70;3.77;;;-5.10;69.60;;;;;;4976275;28;20451;-59
2024/01/16 01:57:29;;;;;;;7.07;4.07;;;-5.10;69.50;;;;;;4987220;28;20417;-60
2024/01/16 01:59:55;;;;;;;6.30;4.20;;;-5.10;69.60;;;;;;4989301;28;20404;-61
2024/01/16 02:02:22;;;;;;;6.97;4.20;;;-5.10;69.90;;;;;;4990911;28;20556;-61
2024/01/16 02:04:48;;;;;;;5.43;3.50;;;-5.20;69.80;;;;;;4988346;28;20418;-58
2024/01/16 02:07:15;;;;;;;8.60;4.10;;;-5.30;69.80;;;;;;4990682;28;20792;-59
2024/01/16 02:09:41;;;;;;;6.83;3.80;;;-5.30;70.70;;;;;;4986485;28;20174;-59
2024/01/16 02:12:07;;;;;;;11.30;4.23;;;-5.40;70.50;;;;;;4984423;28;20573;-60
2024/01/16 02:14:33;;;;;;;6.33;3.60;;;-5.40;70.80;;;;;;4991673;28;20213;-58
2024/01/16 02:16:58;;;;;;;6.73;5.00;;;-5.50;71.50;;;;;;4990574;28;20949;-59
2024/01/16 02:19:25;;;;;;;7.83;3.90;;;-5.50;72.10;;;;;;4985798;28;20684;-59
2024/01/16 02:21:56;;;;;;;4.97;3.23;;;-5.50;72.20;;;;;;4991470;28;20168;-59
2024/01/16 02:24:22;;;;;;;8.97;3.87;;;-5.60;71.90;;;;;;4991691;28;20425;-60
2024/01/16 02:26:47;;;;;;;6.20;3.50;;;-5.60;72.70;;;;;;4977688;28;20440;-58
2024/01/16 02:29:13;;;;;;;9.17;4.10;;;-5.60;72.80;;;;;;4983775;28;20232;-60
2024/01/16 02:31:38;;;;;;;6.53;3.90;;;-5.70;73.30;;;;;;4991299;28;20236;-59
2024/01/16 02:34:04;;;;;;;10.83;3.83;;;-5.80;72.90;;;;;;4981904;28;20266;-60
2024/01/16 02:36:30;;;;;;;6.67;3.60;;;-5.80;73.20;;;;;;4983818;28;20180;-60
2024/01/16 02:38:56;;;;;;;6.63;4.07;;;-5.90;73.30;;;;;;4988549;28;20209;-61
2024/01/16 02:41:22;;;;;;;7.50;3.83;;;-5.90;73.70;;;;;;4990098;28;20396;-60
2024/01/16 02:43:48;;;;;;;5.53;3.30;;;-6.00;74.10;;;;;;4981273;28;20174;-60
2024/01/16 02:46:17;;;;;;;5.20;3.30;;;-6.00;74.40;;;;;;4982198;28;20526;-59
2024/01/16 02:48:42;;;;;;;7.50;3.67;;;-6.00;74.20;;;;;;4979006;28;20462;-61
2024/01/16 02:51:08;;;;;;;6.87;3.60;;;-6.10;73.70;;;;;;4990259;28;20454;-61
2024/01/16 02:53:34;;;;;;;6.50;3.20;;;-6.10;73.00;;;;;;4989262;28;20235;-59
2024/01/16 02:56:00;;;;;;;3.50;2.90;;;-6.20;73.30;;;;;;4988415;28;20425;-60
2024/01/16 02:58:30;;;;;;;5.43;3.20;;;-6.30;73.10;;;;;;4980780;28;20416;-59
2024/01/16 03:00:57;;;;;;;6.70;3.97;;;-6.30;73.20;;;;;;4985495;28;20225;-59
2024/01/16 03:03:23;;;;;;;6.03;3.33;;;-6.40;73.50;;;;;;4987733;28;20782;-61
2024/01/16 03:05:49;;;;;;;9.73;4.10;;;-6.40;73.60;;;;;;4987142;28;20479;-58
2024/01/16 03:08:14;;;;;;;14.50;5.57;;;-6.50;74.50;;;;;;4990069;28;21005;-61
2024/01/16 03:10:41;;;;;;;6.43;3.53;;;-6.50;76.30;;;;;;4987023;28;20174;-59
2024/01/16 03:13:07;;;;;;;8.85;4.07;;;-6.50;77.80;;;;;;4989268;28;20261;-60
2024/01/16 03:15:32;;;;;;;5.57;3.13;;;-6.60;78.30;;;;;;4983842;28;20269;-59
2024/01/16 03:18:01;;;;;;;12.60;3.90;;;-6.60;78.90;;;;;;4989363;28;20848;-60
2024/01/16 03:20:27;;;;;;;6.82;3.85;;;-6.60;79.50;;;;;;4979207;28;20757;-60
2024/01/16 03:22:53;;;;;;;5.32;3.30;;;-6.60;78.20;;;;;;4984107;28;20188;-61
2024/01/16 03:25:19;;;;;;;7.70;4.00;;;-6.60;78.10;;;;;;4989693;28;20253;-59
2024/01/16 03:27:45;;;;;;;8.23;4.47;;;-6.70;78.10;;;;;;4983324;28;20199;-60
2024/01/16 03:30:11;;;;;;;16.73;3.87;;;-6.70;78.30;;;;;;4989491;28;20804;-60
2024/01/16 03:32:37;;;;;;;7.10;4.20;;;-6.70;78.60;;;;;;4989863;28;20174;-59
2024/01/16 03:35:04;;;;;;;11.18;5.28;;;-6.80;79.10;;;;;;4977732;28;20418;-59
2024/01/16 03:37:30;;;;;;;9.13;4.50;;;-6.80;79.40;;;;;;4989166;28;20644;-60
2024/01/16 03:39:56;;;;;;;8.33;4.80;;;-6.80;79.10;;;;;;4990182;28;20453;-59
2024/01/16 03:42:22;;;;;;;9.83;4.40;;;-6.80;79.50;;;;;;4989544;28;20795;-59
2024/01/16 03:44:48;;;;;;;9.50;4.70;;;-6.90;80.90;;;;;;4985462;28;20440;-60
2024/01/16 03:47:13;;;;;;;7.50;4.30;;;-6.90;80.50;;;;;;4988396;28;20445;-61
2024/01/16 03:49:39;;;;;;;7.00;4.60;;;-6.90;80.60;;;;;;4988654;28;20186;-59
2024/01/16 03:52:05;;;;;;;7.97;4.47;;;-6.90;80.20;;;;;;4989246;28;20265;-59
2024/01/16 03:54:30;;;;;;;6.93;4.53;;;-6.90;80.10;;;;;;4987340;28;20175;-59
2024/01/16 03:56:56;;;;;;;9.30;4.50;;;-7.00;79.40;;;;;;4986482;28;20420;-61
2024/01/16 03:59:22;;;;;;;8.27;4.93;;;-7.00;79.10;;;;;;4984905;28;20264;-61
2024/01/16 04:01:48;;;;;;;7.90;4.57;;;-7.10;79.20;;;;;;4986390;28;20185;-59
2024/01/16 04:04:15;;;;;;;10.95;4.45;;;-7.10;79.50;;;;;;4984695;28;20261;-59
2024/01/16 04:06:40;;;;;;;9.23;4.97;;;-7.10;80.70;;;;;;4988561;28;20199;-60
2024/01/16 04:09:08;;;;;;;8.53;4.37;;;-7.20;80.80;;;;;;4983170;28;20240;-61
2024/01/16 04:11:34;;;;;;;8.02;4.63;;;-7.20;80.50;;;;;;4988225;28;20176;-58
2024/01/16 04:13:59;;;;;;;12.57;5.17;;;-7.20;81.60;;;;;;4989594;28;20267;-60
2024/01/16 04:16:25;;;;;;;13.70;4.97;;;-7.20;81.30;;;;;;4988694;28;20420;-60
2024/01/16 04:18:51;;;;;;;10.40;4.63;;;-7.30;80.80;;;;;;4988784;28;20197;-60
2024/01/16 04:21:16;;;;;;;8.77;4.80;;;-7.30;80.70;;;;;;4985119;28;20436;-60
2024/01/16 04:23:42;;;;;;;12.53;5.03;;;-7.30;81.70;;;;;;4984905;28;20208;-60
2024/01/16 04:26:08;;;;;;;8.90;4.90;;;-7.30;82.50;;;;;;4974183;28;20751;-59
2024/01/16 04:28:34;;;;;;;14.97;4.93;;;-7.30;83.00;;;;;;4983896;28;20209;-58
2024/01/16 04:31:03;;;;;;;7.28;4.82;;;-7.40;82.80;;;;;;4987398;28;20263;-60
2024/01/16 04:33:29;;;;;;;9.05;5.22;;;-7.40;83.50;;;;;;4982446;28;20178;-61
2024/01/16 04:35:55;;;;;;;8.70;4.93;;;-7.40;83.60;;;;;;4987814;28;20185;-59
2024/01/16 04:38:21;;;;;;;8.30;4.00;;;-7.40;83.30;;;;;;4984534;28;20649;-60
2024/01/16 04:40:47;;;;;;;7.27;4.60;;;-7.40;84.00;;;;;;4988930;28;20181;-57
2024/01/16 04:43:12;;;;;;;7.33;4.60;;;-7.40;83.90;;;;;;4986894;28;20178;-60
2024/01/16 04:45:38;;;;;;;10.93;4.27;;;-7.50;84.00;;;;;;4989714;28;20193;-59
2024/01/16 04:48:04;;;;;;;9.40;5.00;;;-7.50;84.60;;;;;;4983520;28;20198;-59
2024/01/16 04:50:32;;;;;;;10.33;3.63;;;-7.50;83.80;;;;;;4990268;28;20169;-60
2024/01/16 04:53:01;;;;;;;6.40;3.92;;;-7.50;83.70;;;;;;4990201;28;20174;-59
2024/01/16 04:55:30;;;;;;;7.43;3.60;;;-7.50;83.00;;;;;;4974182;28;20296;-59
2024/01/16 04:57:57;;;;;;;7.78;4.10;;;-7.60;82.60;;;;;;4977429;28;20228;-59
2024/01/16 05:00:23;;;;;;;10.32;4.10;;;-7.60;82.30;;;;;;4987331;28;20176;-59
2024/01/16 05:02:48;;;;;;;13.95;4.00;;;-7.60;82.40;;;;;;4986126;28;20181;-59
2024/01/16 05:05:14;;;;;;;8.73;4.00;;;-7.70;81.60;;;;;;4981121;28;20201;-60
2024/01/16 05:07:40;;;;;;;7.30;4.27;;;-7.70;82.10;;;;;;4985631;28;20229;-60
2024/01/16 05:10:09;;;;;;;7.40;4.50;;;-7.70;82.80;;;;;;4988112;28;20420;-60
2024/01/16 05:12:35;;;;;;;7.45;4.22;;;-7.70;82.50;;;;;;4988513;28;20548;-60
2024/01/16 05:15:00;;;;;;;7.93;4.70;;;-7.70;82.70;;;;;;4988341;28;20699;-61
2024/01/16 05:17:26;;;;;;;8.80;5.27;;;-7.80;82.80;;;;;;4987567;28;20174;-60
2024/01/16 05:19:58;;;;;;;9.70;4.07;;;-7.80;82.50;;;;;;4986729;28;20256;-59
2024/01/16 05:22:25;;;;;;;9.65;4.18;;;-7.80;82.90;;;;;;4988391;28;20195;-60
2024/01/16 05:24:51;;;;;;;7.18;4.07;;;-7.80;82.20;;;;;;4987994;28;20166;-60
2024/01/16 05:27:16;;;;;;;9.47;4.10;;;-7.80;81.50;;;;;;4983777;28;20179;-59
2024/01/16 05:29:42;;;;;;;12.57;4.97;;;-7.90;80.40;;;;;;4984341;28;20174;-61
2024/01/16 05:32:07;;;;;;;4.40;3.80;;;-7.90;80.70;;;;;;4988007;28;20230;-60
2024/01/16 05:34:33;;;;;;;7.33;4.10;;;-7.90;80.80;;;;;;4991338;28;20244;-58
2024/01/16 05:36:58;;;;;;;9.83;5.17;;;-8.00;80.40;;;;;;4989316;28;20768;-61
2024/01/16 05:39:24;;;;;;;6.70;3.83;;;-8.00;80.60;;;;;;4990777;28;20233;-59
2024/01/16 05:41:50;;;;;;;13.50;5.77;;;-8.00;81.00;;;;;;4991879;28;20584;-59
2024/01/16 05:44:16;;;;;;;9.80;5.40;;;-8.00;80.80;;;;;;4991990;28;20269;-58
2024/01/16 05:46:42;;;;;;;12.30;5.90;;;-8.00;81.10;;;;;;4989278;28;20482;-59
2024/01/16 05:49:08;;;;;;;13.23;5.55;;;-8.10;82.30;;;;;;4990355;28;20198;-59
2024/01/16 05:51:33;;;;;;;13.77;5.87;;;-8.10;83.30;;;;;;4987182;28;20176;-59
2024/01/16 05:53:59;;;;;;;11.43;6.30;;;-8.10;84.00;;;;;;4991939;28;20649;-61
2024/01/16 05:56:25;;;;;;;12.77;6.20;;;-8.10;83.70;;;;;;4985036;28;20178;-61
2024/01/16 05:58:51;;;;;;;11.73;5.43;;;-8.10;84.70;;;;;;4991682;28;20202;-60
2024/01/16 06:01:17;;;;;;;15.05;5.97;;;-8.10;86.50;;;;;;4986391;28;20726;-60
2024/01/16 06:03:45;;;;;;;10.23;5.00;;;-8.10;87.50;;;;;;4992511;28;20209;-59
2024/01/16 06:06:11;;;;;;;15.15;6.63;;;-8.10;87.20;;;;;;4987900;28;20215;-59
2024/01/16 06:08:36;;;;;;;9.95;6.10;;;-8.10;86.50;;;;;;4987714;28;20641;-59
2024/01/16 06:11:02;;;;;;;10.30;6.07;;;-8.10;87.40;;;;;;4990053;28;20201;-59
2024/01/16 06:13:30;;;;;;;14.90;7.03;;;-8.10;87.10;;;;;;4990944;28;20185;-60
2024/01/16 06:15:55;;;;;;;16.67;6.93;;;-8.10;86.60;;;;;;4990713;28;20200;-62
2024/01/16 06:18:21;;;;;;;13.70;6.10;;;-8.10;86.10;;;;;;4989111;28;20579;-60
2024/01/16 06:20:46;;;;;;;15.97;6.83;;;-8.10;85.20;;;;;;4991875;28;20177;-59
2024/01/16 06:23:12;;;;;;;17.33;7.57;;;-8.10;86.30;;;;;;4989319;28;20260;-61
2024/01/16 06:25:37;;;;;;;16.13;7.10;;;-8.10;86.20;;;;;;4986898;28;20200;-60
2024/01/16 06:28:05;;;;;;;16.10;7.30;;;-8.10;85.60;;;;;;4989479;28;20292;-58
2024/01/16 06:30:30;;;;;;;13.85;6.55;;;-8.10;85.60;;;;;;4991310;28;20177;-59
2024/01/16 06:32:56;;;;;;;15.60;7.23;;;-8.20;86.10;;;;;;4985458;28;20188;-63
2024/01/16 06:35:23;;;;;;;12.17;6.37;;;-8.20;86.50;;;;;;4988079;28;21677;-62
2024/01/16 06:37:49;;;;;;;10.25;6.38;;;-8.20;86.30;;;;;;4983767;28;20621;-60
2024/01/16 06:40:14;;;;;;;15.80;6.90;;;-8.20;85.60;;;;;;4988522;28;20259;-63
2024/01/16 06:42:40;;;;;;;16.70;7.07;;;-8.20;85.00;;;;;;4986479;28;20644;-60
2024/01/16 06:45:06;;;;;;;15.83;7.33;;;-8.20;85.80;;;;;;4989171;28;21030;-60
2024/01/16 06:47:32;;;;;;;12.80;7.15;;;-8.20;86.50;;;;;;4990738;28;20646;-57
2024/01/16 06:49:58;;;;;;;14.47;6.93;;;-8.30;87.30;;;;;;4986753;28;20189;-61
2024/01/16 06:52:24;;;;;;;15.07;7.23;;;-8.30;87.30;;;;;;4990197;28;20410;-61
2024/01/16 06:54:50;;;;;;;10.10;5.60;;;-8.30;87.30;;;;;;4990925;28;20169;-58
2024/01/16 06:57:15;;;;;;;13.20;6.23;;;-8.30;88.00;;;;;;4988352;28;20881;-59
2024/01/16 06:59:41;;;;;;;11.93;6.70;;;-8.30;88.10;;;;;;4988735;28;20437;-60
2024/01/16 07:02:08;;;;;;;14.73;5.93;;;-8.30;88.00;;;;;;4990189;28;20691;-59
2024/01/16 07:04:33;;;;;;;11.75;5.93;;;-8.30;88.60;;;;;;4990392;28;20173;-61
2024/01/16 07:06:59;;;;;;;14.20;5.40;;;-8.30;88.20;;;;;;4983096;28;20202;-62
2024/01/16 07:09:27;;;;;;;17.77;7.70;;;-8.30;88.20;;;;;;4987889;28;20200;-60
2024/01/16 07:11:53;;;;;;;14.13;6.85;;;-8.30;89.20;;;;;;4981271;28;20232;-62
2024/01/16 07:14:18;;;;;;;15.07;7.72;;;-8.30;89.60;;;;;;4990641;28;20212;-59
2024/01/16 07:16:45;;;;;;;21.15;8.98;;;-8.30;89.50;;;;;;4990221;28;20648;-60
2024/01/16 07:19:11;;;;;;;24.50;11.30;;;-8.30;88.60;;;;;;4988538;28;20209;-61
2024/01/16 07:21:37;;;;;;;22.15;10.02;;;-8.30;87.90;;;;;;4984543;28;20668;-60
2024/01/16 07:24:03;;;;;;;21.00;9.50;;;-8.30;87.00;;;;;;4989560;28;20253;-59
2024/01/16 07:26:29;;;;;;;30.43;12.00;;;-8.30;86.70;;;;;;4988006;28;20212;-61
2024/01/16 07:28:55;;;;;;;28.70;10.52;;;-8.30;85.60;;;;;;4990217;28;20510;-61
2024/01/16 07:31:21;;;;;;;22.10;8.67;;;-8.30;85.40;;;;;;4989925;28;20261;-61
2024/01/16 07:33:46;;;;;;;15.63;7.70;;;-8.30;85.80;;;;;;4986878;28;20548;-59
2024/01/16 07:36:12;;;;;;;13.80;5.97;;;-8.30;85.90;;;;;;4983679;28;20282;-61
2024/01/16 07:38:38;;;;;;;10.40;5.23;;;-8.30;85.90;;;;;;4989911;28;20205;-59
2024/01/16 07:41:05;;;;;;;15.80;6.70;;;-8.30;86.10;;;;;;4989832;28;20192;-57
2024/01/16 07:43:31;;;;;;;12.80;5.47;;;-8.30;86.70;;;;;;4989561;28;20413;-59
2024/01/16 07:45:56;;;;;;;15.70;5.90;;;-8.20;86.40;;;;;;4988102;28;20703;-59
2024/01/16 07:48:25;;;;;;;13.73;5.60;;;-8.20;85.80;;;;;;4986085;28;20424;-57
2024/01/16 07:50:51;;;;;;;13.13;6.45;;;-8.20;85.90;;;;;;4987171;28;20215;-60
2024/01/16 07:53:16;;;;;;;14.20;6.80;;;-8.20;85.20;;;;;;4987268;28;20261;-61
2024/01/16 07:55:43;;;;;;;27.63;6.90;;;-8.20;84.80;;;;;;4988391;28;20178;-57
2024/01/16 07:58:11;;;;;;;16.23;7.30;;;-8.10;85.20;;;;;;4986598;28;20418;-60
2024/01/16 08:00:36;;;;;;;15.63;7.82;;;-8.20;85.00;;;;;;4989348;28;20196;-60
2024/01/16 08:03:02;;;;;;;19.60;7.63;;;-8.10;86.20;;;;;;4982758;28;20741;-59
2024/01/16 08:05:30;;;;;;;15.93;7.35;;;-8.10;86.60;;;;;;4988529;28;20208;-60
2024/01/16 08:07:56;;;;;;;18.10;8.48;;;-8.10;86.00;;;;;;4983546;28;20193;-61
2024/01/16 08:10:21;;;;;;;22.35;7.15;;;-8.00;86.10;;;;;;4984679;28;20182;-60
2024/01/16 08:12:47;;;;;;;18.90;8.60;;;-8.00;84.50;;;;;;4990296;28;20185;-59
2024/01/16 08:15:13;;;;;;;21.00;8.93;;;-8.00;82.90;;;;;;4988088;28;20818;-59
2024/01/16 08:17:39;;;;;;;17.33;7.83;;;-7.90;82.90;;;;;;4989621;28;21207;-60
2024/01/16 08:20:05;;;;;;;15.57;8.90;;;-7.90;82.70;;;;;;4987255;28;20562;-59
2024/01/16 08:22:31;;;;;;;21.88;8.80;;;-7.90;83.80;;;;;;4989782;28;20497;-58
2024/01/16 08:24:57;;;;;;;16.73;8.20;;;-7.90;83.10;;;;;;4989747;28;20181;-58
2024/01/16 08:27:22;;;;;;;23.80;9.97;;;-7.90;83.30;;;;;;4988532;28;20181;-59
2024/01/16 08:29:50;;;;;;;13.70;7.60;;;-7.90;83.50;;;;;;4985871;28;20175;-58
2024/01/16 08:32:17;;;;;;;16.63;8.70;;;-7.80;84.60;;;;;;4989954;28;20269;-58
2024/01/16 08:34:43;;;;;;;17.75;6.65;;;-7.80;85.60;;;;;;4989589;28;20587;-59
2024/01/16 08:37:09;;;;;;;15.30;7.77;;;-7.70;87.50;;;;;;4986204;28;20186;-60
2024/01/16 08:39:35;;;;;;;12.25;6.93;;;-7.60;87.40;;;;;;4980946;28;20458;-58
2024/01/16 08:42:02;;;;;;;13.13;6.93;;;-7.60;87.80;;;;;;4988793;28;20229;-59
2024/01/16 08:44:27;;;;;;;11.95;6.05;;;-7.50;89.70;;;;;;4989759;28;20801;-59
2024/01/16 08:46:53;;;;;;;19.97;8.77;;;-7.40;90.50;;;;;;4982489;28;20260;-59
2024/01/16 08:49:19;;;;;;;13.53;6.40;;;-7.40;90.20;;;;;;4988998;28;20221;-58
2024/01/16 08:51:44;;;;;;;9.73;6.30;;;-7.30;89.10;;;;;;4990020;28;20185;-59
2024/01/16 08:54:10;;;;;;;13.43;5.87;;;-7.20;90.00;;;;;;4989276;28;20189;-61
2024/01/16 08:56:36;;;;;;;11.50;5.07;;;-7.20;90.70;;;;;;4985801;28;20573;-59
2024/01/16 08:59:02;;;;;;;13.88;6.38;;;-7.10;90.50;;;;;;4986853;28;20212;-58
2024/01/16 09:01:27;;;;;;;13.00;6.10;;;-7.00;90.40;;;;;;4988915;28;20177;-59
2024/01/16 09:03:53;;;;;;;10.90;5.60;;;-6.90;88.80;;;;;;4987791;28;20181;-60
2024/01/16 09:06:18;;;;;;;9.70;6.03;;;-6.80;87.80;;;;;;4982406;28;20193;-60
2024/01/16 09:08:44;;;;;;;10.97;5.63;;;-6.80;86.10;;;;;;4988920;28;20251;-59
2024/01/16 09:11:11;;;;;;;10.03;5.90;;;-6.80;86.50;;;;;;4980478;28;20178;-60
2024/01/16 09:13:37;;;;;;;15.13;6.00;;;-6.70;85.90;;;;;;4987322;28;20181;-60
2024/01/16 09:16:04;;;;;;;8.80;5.05;;;-6.70;86.30;;;;;;4988099;28;20185;-60
2024/01/16 09:18:29;;;;;;;9.05;5.45;;;-6.60;87.50;;;;;;4987436;28;20201;-59
2024/01/16 09:20:55;;;;;;;14.23;6.57;;;-6.50;87.90;;;;;;4989287;28;20177;-60
2024/01/16 09:23:21;;;;;;;10.30;5.93;;;-6.40;87.00;;;;;;4988965;28;20247;-59
2024/01/16 09:25:47;;;;;;;8.33;5.70;;;-6.30;85.50;;;;;;4988588;28;20201;-60
2024/01/16 09:28:13;;;;;;;16.40;5.95;;;-6.20;83.60;;;;;;4985082;28;20295;-60
2024/01/16 09:30:38;;;;;;;8.90;5.77;;;-6.10;83.60;;;;;;4988223;28;20852;-59
2024/01/16 09:33:06;;;;;;;9.27;5.40;;;-6.00;83.50;;;;;;4987783;28;20178;-60
2024/01/16 09:35:32;;;;;;;15.57;6.07;;;-6.00;81.50;;;;;;4988205;28;20167;-59
2024/01/16 09:37:59;;;;;;;11.63;6.13;;;-5.80;81.80;;;;;;4982387;28;20435;-60
2024/01/16 09:40:25;;;;;;;9.23;5.80;;;-5.70;79.80;;;;;;4987758;28;20766;-60
2024/01/16 09:42:51;;;;;;;11.37;6.43;;;-5.60;77.10;;;;;;4980494;28;20381;-60
2024/01/16 09:45:21;;;;;;;15.83;7.10;;;-5.40;75.70;;;;;;4987963;28;20982;-58
2024/01/16 09:47:49;;;;;;;14.17;7.10;;;-5.40;73.60;;;;;;4984714;28;20504;-59
2024/01/16 09:50:17;;;;;;;18.03;7.20;;;-5.30;74.00;;;;;;4987250;28;20400;-60
2024/01/16 09:52:45;;;;;;;17.83;7.70;;;-5.30;74.50;;;;;;4987897;28;20393;-59
2024/01/16 09:55:10;;;;;;;15.07;8.33;;;-5.20;73.30;;;;;;4987907;28;20410;-59
2024/01/16 09:57:40;;;;;;;13.13;6.70;;;-5.20;72.10;;;;;;4983248;28;20410;-60
2024/01/16 10:00:11;;;;;;;13.10;7.73;;;-5.10;71.50;;;;;;4986784;28;20445;-59
2024/01/16 10:02:41;;;;;;;19.13;7.83;;;-5.10;71.80;;;;;;4988270;28;20410;-59
2024/01/16 10:05:08;;;;;;;15.53;7.60;;;-5.00;72.90;;;;;;4982672;28;20430;-60
2024/01/16 10:07:37;;;;;;;13.80;7.87;;;-4.90;73.20;;;;;;4987001;28;20388;-60
2024/01/16 10:10:04;;;;;;;9.03;6.13;;;-4.80;72.40;;;;;;4986382;28;20397;-59
2024/01/16 10:12:30;;;;;;;16.23;7.60;;;-4.70;71.80;;;;;;4982014;28;20418;-61
2024/01/16 10:14:56;;;;;;;15.53;6.93;;;-4.50;71.90;;;;;;4988123;28;20483;-60
2024/01/16 10:17:22;;;;;;;16.47;7.80;;;-4.50;70.20;;;;;;4987415;28;20898;-59
2024/01/16 10:19:48;;;;;;;14.10;8.50;;;-4.30;69.80;;;;;;4983263;28;20855;-59
2024/01/16 10:22:24;;;;;;;15.63;8.13;;;-4.20;69.70;;;;;;4982290;28;20230;-60
2024/01/16 10:25:03;;;;;;;13.80;7.60;;;-4.20;68.70;;;;;;4991268;28;20396;-59
2024/01/16 10:27:31;;;;;;;18.67;8.90;;;-4.10;68.50;;;;;;4987291;28;20426;-60
2024/01/16 10:29:57;;;;;;;21.67;9.30;;;-4.00;68.90;;;;;;4989171;28;20446;-60
2024/01/16 10:32:38;;;;;;;20.80;10.20;;;-3.80;69.00;;;;;;4991429;28;20416;-61
2024/01/16 10:35:10;;;;;;;21.00;9.83;;;-3.70;68.20;;;;;;4990697;28;20428;-59
2024/01/16 10:37:44;;;;;;;23.07;11.50;;;-3.70;67.90;;;;;;4982275;28;20443;-60
2024/01/16 10:40:11;;;;;;;33.47;15.13;;;-3.50;68.40;;;;;;4990023;28;20419;-60
2024/01/16 10:42:38;;;;;;;30.27;13.17;;;-3.50;67.80;;;;;;4991009;28;20432;-59
2024/01/16 10:45:05;;;;;;;34.80;14.50;;;-3.40;67.80;;;;;;4989772;28;20793;-59
2024/01/16 10:47:34;;;;;;;33.97;13.60;;;-3.30;68.00;;;;;;4983082;28;20444;-59
2024/01/16 10:50:00;;;;;;;27.10;13.67;;;-3.20;68.00;;;;;;4990168;28;20410;-60
2024/01/16 10:52:29;;;;;;;27.33;12.27;;;-3.00;68.60;;;;;;4990729;28;20410;-60
2024/01/16 10:54:59;;;;;;;20.60;10.40;;;-2.90;68.60;;;;;;4990704;28;20421;-59
2024/01/16 10:57:26;;;;;;;20.10;10.87;;;-2.70;67.60;;;;;;4986980;28;20994;-60
2024/01/16 11:00:08;;;;;;;23.13;12.03;;;-2.60;66.60;;;;;;4987803;28;20421;-58
2024/01/16 11:03:05;;;;;;;23.83;10.63;;;-2.50;66.30;;;;;;4985481;28;20529;-60
2024/01/16 11:05:33;;;;;;;15.00;8.57;;;-2.40;65.50;;;;;;4983628;28;20457;-57
2024/01/16 11:08:01;;;;;;;22.43;9.87;;;-2.20;65.60;;;;;;4989943;28;20445;-58
2024/01/16 11:10:28;;;;;;;18.67;9.57;;;-2.10;65.50;;;;;;4989022;28;20467;-60
2024/01/16 11:12:55;;;;;;;18.90;10.00;;;-1.90;65.20;;;;;;4990096;28;20438;-59
2024/01/16 11:15:25;;;;;;;21.40;10.37;;;-1.80;65.00;;;;;;4989916;28;20445;-59
2024/01/16 11:17:58;;;;;;;17.60;9.60;;;-1.70;64.60;;;;;;4990202;28;20437;-58
2024/01/16 11:20:27;;;;;;;18.43;8.93;;;-1.50;64.00;;;;;;4986489;28;20445;-59
2024/01/16 11:23:03;;;;;;;18.73;8.90;;;-1.50;63.50;;;;;;4990484;28;20501;-59
2024/01/16 11:25:33;;;;;;;18.10;9.50;;;-1.40;63.50;;;;;;4990424;28;20956;-60
2024/01/16 11:28:15;;;;;;;20.13;9.43;;;-1.40;63.30;;;;;;4984626;28;20813;-60
2024/01/16 11:30:43;;;;;;;21.50;10.13;;;-1.40;63.70;;;;;;4984957;28;20787;-57
2024/01/16 11:33:30;;;;;;;15.73;9.10;;;-1.30;64.00;;;;;;4990049;28;20410;-59
2024/01/16 11:35:56;;;;;;;24.33;10.80;;;-1.10;63.90;;;;;;4985204;28;20843;-60
2024/01/16 11:38:23;;;;;;;21.37;9.93;;;-0.90;64.10;;;;;;4989192;28;20524;-59
2024/01/16 11:40:49;;;;;;;19.73;10.77;;;-0.60;63.90;;;;;;4990202;28;20237;-59
2024/01/16 11:43:32;;;;;;;25.63;10.80;;;-0.50;62.00;;;;;;4988131;28;20443;-60
2024/01/16 11:46:02;;;;;;;15.50;8.50;;;-0.30;61.40;;;;;;4983455;28;20690;-60
2024/01/16 11:48:27;;;;;;;17.43;7.73;;;-0.20;61.50;;;;;;4989418;28;20438;-60
2024/01/16 11:50:53;;;;;;;14.07;7.20;;;-0.10;60.90;;;;;;4987275;28;20458;-60
2024/01/16 11:53:38;;;;;;;17.47;8.00;;;0.00;60.60;;;;;;4990065;28;20188;-62
2024/01/16 11:56:11;;;;;;;16.20;8.80;;;0.10;60.30;;;;;;4988726;28;20462;-59
2024/01/16 11:59:16;;;;;;;23.57;9.93;;;0.20;60.40;;;;;;4982289;28;20488;-61
2024/01/16 12:01:45;;;;;;;24.40;10.20;;;0.20;60.30;;;;;;4986599;28;20493;-60
2024/01/16 12:04:10;;;;;;;22.73;9.93;;;0.30;60.40;;;;;;4988415;28;20453;-61
2024/01/16 12:06:37;;;;;;;21.43;9.30;;;0.20;60.20;;;;;;4988741;28;20957;-60
2024/01/16 12:09:13;;;;;;;17.60;8.60;;;0.20;59.60;;;;;;4986628;28;20202;-58
2024/01/16 12:11:40;;;;;;;18.93;8.70;;;0.10;59.70;;;;;;4982464;28;20515;-60
2024/01/16 12:14:06;;;;;;;19.27;9.30;;;0.00;60.20;;;;;;4981566;28;20442;-57
2024/01/16 12:16:32;;;;;;;18.30;10.10;;;0.00;60.40;;;;;;4989775;28;20421;-60
2024/01/16 12:19:09;;;;;;;19.43;8.63;;;-0.10;60.70;;;;;;4989213;28;20203;-60
2024/01/16 12:21:45;;;;;;;16.90;9.03;;;-0.20;60.90;;;;;;4983860;28;20237;-59
2024/01/16 12:24:11;;;;;;;13.97;8.77;;;-0.20;61.10;;;;;;4983129;28;20806;-61
2024/01/16 12:26:39;;;;;;;18.13;8.70;;;-0.30;61.60;;;;;;4987271;28;21052;-58
2024/01/16 12:29:04;;;;;;;18.30;9.60;;;-0.30;62.10;;;;;;4988758;28;20937;-59
2024/01/16 12:31:30;;;;;;;16.33;8.77;;;-0.40;62.70;;;;;;4986398;28;20430;-60
2024/01/16 12:34:08;;;;;;;19.03;8.60;;;-0.40;61.90;;;;;;4986490;28;20925;-59
2024/01/16 12:36:35;;;;;;;19.43;7.23;;;-0.40;62.30;;;;;;4983210;28;20282;-59
2024/01/16 12:39:00;;;;;;;15.03;7.03;;;-0.40;62.90;;;;;;4987051;28;20492;-59